createdAt,value
2023-04-05T00:03:05.910Z,96070.09
2023-04-05T00:08:13.423Z,96068.59
2023-04-05T00:13:15.959Z,96068.06
2023-04-05T00:18:23.853Z,96064.81
2023-04-05T00:23:27.020Z,96070.06
2023-04-05T00:28:30.106Z,96063.41
2023-04-05T00:33:34.853Z,96053.44
2023-04-05T00:38:37.322Z,96049.78
2023-04-05T00:43:40.051Z,96051.81
2023-04-05T00:48:42.474Z,96044.72
2023-04-05T00:53:47.953Z,96035.91
2023-04-05T00:58:52.068Z,96035.59
2023-04-05T01:03:55.069Z,96036.97
2023-04-05T01:08:57.828Z,96021.97
2023-04-05T01:14:00.598Z,96027.63
2023-04-05T01:19:04.238Z,96019.75
2023-04-05T01:24:09.964Z,96013.47
2023-04-05T01:29:12.292Z,96004.69
2023-04-05T01:34:15.122Z,96006.44
2023-04-05T01:39:17.576Z,95994.28
2023-04-05T01:44:20.698Z,95997.41
2023-04-05T01:49:23.050Z,95993.69
2023-04-05T01:54:25.416Z,95995.16
2023-04-05T01:59:27.888Z,95986.25
2023-04-05T02:04:31.161Z,95982.81
2023-04-05T02:09:33.818Z,95979.16
2023-04-05T02:14:36.445Z,95985.94
2023-04-05T02:19:46.798Z,95979.84
2023-04-05T02:24:50.218Z,95978.22
2023-04-05T02:29:55.736Z,95974.84
2023-04-05T02:34:58.381Z,95972.28
2023-04-05T02:40:01.069Z,95959.09
2023-04-05T02:45:03.409Z,95954.41
2023-04-05T02:50:07.048Z,95957.44
2023-04-05T02:55:10.263Z,95962.66
2023-04-05T03:00:13.865Z,95949.44
2023-04-05T03:05:18.705Z,95951.41
2023-04-05T03:10:22.369Z,95956.03
2023-04-05T03:15:25.617Z,95950.16
2023-04-05T03:20:28.069Z,95945.63
2023-04-05T03:25:31.179Z,95942.63
2023-04-05T03:30:33.863Z,95938.06
2023-04-05T03:35:36.436Z,95950.31
2023-04-05T03:40:38.785Z,95943.38
2023-04-05T03:45:41.187Z,95940.13
2023-04-05T03:50:44.103Z,95945.00
2023-04-05T03:55:49.564Z,95941.88
2023-04-05T04:00:52.823Z,95945.25
2023-04-05T04:06:05.234Z,95940.13
2023-04-05T04:11:08.206Z,95944.81
2023-04-05T04:16:10.580Z,95937.84
2023-04-05T04:21:15.083Z,95939.97
2023-04-05T04:26:28.760Z,95945.09
2023-04-05T04:31:33.602Z,95945.72
2023-04-05T04:36:36.240Z,95947.16
2023-04-05T04:41:38.549Z,95947.47
2023-04-05T04:46:43.338Z,95946.66
2023-04-05T04:51:45.663Z,95949.56
2023-04-05T04:56:48.911Z,95943.31
2023-04-05T05:01:51.998Z,95945.91
2023-04-05T05:06:55.593Z,95937.09
2023-04-05T05:11:59.731Z,95945.31
2023-04-05T05:17:02.169Z,95937.75
2023-04-05T05:22:04.734Z,95931.97
2023-04-05T05:27:07.423Z,95940.63
2023-04-05T05:32:14.263Z,95942.00
2023-04-05T05:37:17.694Z,95941.63
2023-04-05T05:42:21.201Z,95940.38
2023-04-05T05:47:24.105Z,95940.81
2023-04-05T05:52:28.330Z,95954.69
2023-04-05T05:57:40.621Z,95958.53
2023-04-05T06:02:50.189Z,95951.28
2023-04-05T06:07:52.915Z,95955.78
2023-04-05T06:12:55.511Z,95961.34
2023-04-05T06:17:58.686Z,95953.13
2023-04-05T06:23:01.357Z,95965.50
2023-04-05T06:28:05.163Z,95967.81
2023-04-05T06:33:07.921Z,95966.59
2023-04-05T06:38:10.618Z,95960.69
2023-04-05T06:43:13.045Z,95952.16
2023-04-05T06:48:15.484Z,95956.44
2023-04-05T06:53:19.611Z,95955.06
2023-04-05T06:58:21.946Z,95957.31
2023-04-05T07:03:25.059Z,95950.81
2023-04-05T07:08:37.823Z,95950.75
2023-04-05T07:13:40.363Z,95948.97
2023-04-05T07:18:43.576Z,95939.56
2023-04-05T07:23:46.512Z,95940.41
2023-04-05T07:28:58.870Z,95943.16
2023-04-05T07:34:01.414Z,95957.38
2023-04-05T07:39:05.300Z,95952.63
2023-04-05T07:44:07.617Z,95960.88
2023-04-05T07:49:09.995Z,95957.44
2023-04-05T07:54:12.503Z,95959.38
2023-04-05T07:59:15.420Z,95968.72
2023-04-05T08:04:18.468Z,95964.44
2023-04-05T08:09:21.232Z,95953.91
2023-04-05T08:14:24.239Z,95956.00
2023-04-05T08:19:27.383Z,95954.91
2023-04-05T08:24:29.711Z,95950.34
2023-04-05T08:29:32.478Z,95952.31
2023-04-05T08:34:34.851Z,95953.09
2023-04-05T08:39:37.197Z,95951.84
2023-04-05T08:44:49.736Z,95952.56
2023-04-05T08:49:56.960Z,95955.97
2023-04-05T08:54:59.647Z,95960.97
2023-04-05T09:00:02.229Z,95950.88
2023-04-05T09:05:04.585Z,95944.38
2023-04-05T09:10:07.065Z,95949.47
2023-04-05T09:15:09.982Z,95955.56
2023-04-05T09:20:12.702Z,95948.84
2023-04-05T09:25:15.056Z,95944.91
2023-04-05T09:30:19.008Z,95945.19
2023-04-05T09:35:22.568Z,95940.22
2023-04-05T09:40:25.736Z,95938.59
2023-04-05T09:45:28.467Z,95949.00
2023-04-05T09:50:33.002Z,95941.78
2023-04-05T09:55:35.388Z,95943.31
2023-04-05T10:00:37.720Z,95934.94
2023-04-05T10:05:42.286Z,95942.56
2023-04-05T10:10:44.785Z,95931.97
2023-04-05T10:15:49.050Z,95924.88
2023-04-05T10:20:52.215Z,95925.53
2023-04-05T10:25:54.709Z,95930.25
2023-04-05T10:30:57.492Z,95926.22
2023-04-05T10:36:01.110Z,95914.59
2023-04-05T10:41:03.871Z,95913.78
2023-04-05T10:46:06.252Z,95927.19
2023-04-05T10:51:09.479Z,95916.31
2023-04-05T10:56:11.893Z,95913.44
2023-04-05T11:01:17.468Z,95907.97
2023-04-05T11:06:19.922Z,95901.88
2023-04-05T11:11:22.677Z,95892.28
2023-04-05T11:16:26.031Z,95896.44
2023-04-05T11:21:28.739Z,95905.94
2023-04-05T11:26:31.430Z,95899.28
2023-04-05T11:31:34.765Z,95899.03
2023-04-05T11:36:37.890Z,95891.03
2023-04-05T11:41:40.208Z,95892.25
2023-04-05T11:46:42.673Z,95866.78
2023-04-05T11:51:48.685Z,95878.84
2023-04-05T11:56:51.993Z,95868.97
2023-04-05T12:01:54.369Z,95877.69
2023-04-05T12:07:02.998Z,95862.34
2023-04-05T12:12:05.416Z,95869.91
2023-04-05T12:17:08.646Z,95869.63
2023-04-05T12:22:12.167Z,95869.94
2023-04-05T12:27:15.749Z,95862.63
2023-04-05T12:32:18.282Z,95845.78
2023-04-05T12:37:20.765Z,95849.34
2023-04-05T12:42:23.979Z,95848.34
2023-04-05T12:47:27.236Z,95847.41
2023-04-05T12:52:29.682Z,95851.94
2023-04-05T12:57:32.229Z,95844.97
2023-04-05T13:02:34.570Z,95841.75
2023-04-05T13:07:37.824Z,95837.38
2023-04-05T13:12:40.106Z,95825.44
2023-04-05T13:17:42.468Z,95822.00
2023-04-05T13:22:45.300Z,95822.97
2023-04-05T13:27:48.677Z,95821.00
2023-04-05T13:32:53.423Z,95818.63
2023-04-05T13:38:05.899Z,95814.25
2023-04-05T13:43:08.589Z,95818.94
2023-04-05T13:48:11.407Z,95818.38
2023-04-05T13:53:13.898Z,95811.75
2023-04-05T13:58:16.375Z,95807.69
2023-04-05T14:03:18.829Z,95799.03
2023-04-05T14:08:21.580Z,95789.06
2023-04-05T14:13:24.165Z,95801.03
2023-04-05T14:18:27.815Z,95790.84
2023-04-05T14:23:30.280Z,95783.66
2023-04-05T14:28:33.473Z,95782.31
2023-04-05T14:33:36.501Z,95792.25
2023-04-05T14:38:39.654Z,95783.88
2023-04-05T14:43:43.117Z,95776.34
2023-04-05T14:48:45.499Z,95775.25
2023-04-05T14:53:48.175Z,95765.66
2023-04-05T14:58:50.731Z,95772.88
2023-04-05T15:03:54.056Z,95772.69
2023-04-05T15:08:56.862Z,95768.34
2023-04-05T15:13:59.243Z,95776.44
2023-04-05T15:19:03.262Z,95774.63
2023-04-05T15:24:05.655Z,95786.06
2023-04-05T15:29:08.118Z,95779.25
2023-04-05T15:34:10.532Z,95771.72
2023-04-05T15:39:13.597Z,95773.19
2023-04-05T15:44:16.528Z,95782.31
2023-04-05T15:49:19.287Z,95778.94
2023-04-05T15:54:21.767Z,95774.47
2023-04-05T15:59:24.534Z,95780.66
2023-04-05T16:04:28.104Z,95771.88
2023-04-05T16:09:31.342Z,95781.16
2023-04-05T16:14:33.793Z,95778.50
2023-04-05T16:19:36.516Z,95774.25
2023-04-05T16:24:39.829Z,95772.16
2023-04-05T16:29:42.294Z,95771.50
2023-04-05T16:34:45.443Z,95778.75
2023-04-05T16:39:48.188Z,95775.44
2023-04-05T16:44:51.803Z,95783.44
2023-04-05T16:49:54.363Z,95781.16
2023-04-05T16:54:57.490Z,95779.28
2023-04-05T17:00:00.629Z,95787.53
2023-04-05T17:05:03.922Z,95778.41
2023-04-05T17:10:06.346Z,95785.59
2023-04-05T17:15:09.056Z,95793.94
2023-04-05T17:20:12.189Z,95793.25
2023-04-05T17:25:15.752Z,95794.63
2023-04-05T17:30:18.242Z,95795.34
2023-04-05T17:35:20.980Z,95799.03
2023-04-05T17:40:24.262Z,95800.50
2023-04-05T17:45:27.559Z,95805.25
2023-04-05T17:50:30.964Z,95802.69
2023-04-05T17:55:34.258Z,95810.03
2023-04-05T18:00:36.981Z,95808.81
2023-04-05T18:05:41.410Z,95817.66
2023-04-05T18:10:44.765Z,95827.41
2023-04-05T18:15:48.268Z,95821.97
2023-04-05T18:20:51.584Z,95828.78
2023-04-05T18:25:54.759Z,95832.78
2023-04-05T18:30:57.090Z,95843.03
2023-04-05T18:35:59.428Z,95848.28
2023-04-05T18:41:03.265Z,95854.47
2023-04-05T18:46:05.678Z,95857.22
2023-04-05T18:51:10.164Z,95856.56
2023-04-05T18:56:13.415Z,95864.00
2023-04-05T19:01:17.429Z,95863.34
2023-04-05T19:06:28.028Z,95869.84
2023-04-05T19:11:31.325Z,95877.94
2023-04-05T19:16:43.778Z,95876.75
2023-04-05T19:21:46.337Z,95878.16
2023-04-05T19:26:48.706Z,95876.19
2023-04-05T19:31:51.951Z,95886.34
2023-04-05T19:36:54.676Z,95885.56
2023-04-05T19:41:57.749Z,95889.34
2023-04-05T19:47:03.013Z,95895.72
2023-04-05T19:52:05.855Z,95891.41
2023-04-05T19:57:09.708Z,95890.78
2023-04-05T20:02:12.210Z,95889.16
2023-04-05T20:07:14.969Z,95887.91
2023-04-05T20:12:20.368Z,95890.16
2023-04-05T20:17:28.332Z,95886.22
2023-04-05T20:22:31.688Z,95882.84
2023-04-05T20:27:34.200Z,95887.50
2023-04-05T20:32:36.715Z,95878.88
2023-04-05T20:37:39.189Z,95881.66
2023-04-05T20:42:42.848Z,95885.56
2023-04-05T20:47:52.633Z,95884.94
2023-04-05T20:52:55.143Z,95880.53
2023-04-05T20:57:57.865Z,95884.16
2023-04-05T21:03:00.630Z,95875.44
2023-04-05T21:08:03.645Z,95880.81
2023-04-05T21:13:06.059Z,95883.50
2023-04-05T21:18:10.404Z,95880.28
2023-04-05T21:23:12.779Z,95880.50
2023-04-05T21:28:16.221Z,95883.97
2023-04-05T21:33:19.430Z,95885.19
2023-04-05T21:38:21.817Z,95901.09
2023-04-05T21:43:24.383Z,95893.19
2023-04-05T21:48:27.909Z,95890.94
2023-04-05T21:53:30.742Z,95880.00
2023-04-05T21:58:33.957Z,95883.28
2023-04-05T22:03:36.537Z,95894.69
2023-04-05T22:08:38.931Z,95883.31
2023-04-05T22:13:41.533Z,95899.56
2023-04-05T22:18:46.199Z,95895.72
2023-04-05T22:23:48.544Z,95885.75
2023-04-05T22:28:51.789Z,95897.56
2023-04-05T22:33:54.911Z,95891.25
2023-04-05T22:38:57.302Z,95890.25
2023-04-05T22:44:09.643Z,95892.25
2023-04-05T22:49:12.056Z,95892.09
2023-04-05T22:54:24.432Z,95882.50
2023-04-05T22:59:28.169Z,95884.97
2023-04-05T23:04:31.362Z,95880.09
2023-04-05T23:09:33.704Z,95881.31
2023-04-05T23:14:36.177Z,95887.63
2023-04-05T23:19:38.700Z,95882.50
2023-04-05T23:24:41.245Z,95883.31
2023-04-05T23:29:44.479Z,95881.69
2023-04-05T23:34:46.808Z,95873.19
2023-04-05T23:39:49.968Z,95878.25
2023-04-05T23:44:53.090Z,95880.06
2023-04-05T23:49:56.170Z,95873.78
2023-04-05T23:54:59.326Z,95871.94
